createdAt,value
2023-04-16T00:01:05.197Z,8.60
2023-04-16T00:03:33.732Z,8.60
2023-04-16T00:06:02.066Z,8.70
2023-04-16T00:08:30.250Z,8.70
2023-04-16T00:10:58.332Z,8.60
2023-04-16T00:13:27.982Z,8.60
2023-04-16T00:15:56.142Z,8.60
2023-04-16T00:18:24.267Z,8.70
2023-04-16T00:20:53.587Z,8.70
2023-04-16T00:23:21.874Z,8.70
2023-04-16T00:25:49.968Z,8.70
2023-04-16T00:28:18.421Z,8.70
2023-04-16T00:42:19.960Z,8.70
2023-04-16T00:44:48.072Z,8.70
2023-04-16T00:47:16.314Z,8.70
2023-04-16T00:49:44.459Z,8.70
2023-04-16T00:52:13.224Z,8.70
2023-04-16T00:54:41.769Z,8.70
2023-04-16T00:57:11.185Z,8.60
2023-04-16T00:59:41.074Z,8.70
2023-04-16T01:02:09.408Z,8.70
2023-04-16T01:12:40.055Z,8.80
2023-04-16T01:15:11.356Z,8.70
2023-04-16T01:17:39.752Z,8.70
2023-04-16T01:20:08.423Z,8.70
2023-04-16T01:22:38.022Z,8.70
2023-04-16T01:25:06.927Z,8.70
2023-04-16T01:27:35.013Z,8.60
2023-04-16T01:30:03.164Z,8.70
2023-04-16T01:32:33.341Z,8.60
2023-04-16T01:35:01.432Z,8.60
2023-04-16T01:37:29.576Z,8.60
2023-04-16T01:39:59.119Z,8.60
2023-04-16T01:42:28.137Z,8.60
2023-04-16T01:44:56.223Z,8.60
2023-04-16T01:47:24.567Z,8.70
2023-04-16T01:49:52.894Z,8.60
2023-04-16T01:52:21.208Z,8.60
2023-04-16T01:54:49.392Z,8.60
2023-04-16T01:57:18.829Z,8.70
2023-04-16T01:59:46.964Z,8.70
2023-04-16T02:02:17.003Z,8.60
2023-04-16T02:04:46.590Z,8.60
2023-04-16T02:07:14.699Z,8.60
2023-04-16T02:09:42.895Z,8.60
2023-04-16T02:12:11.794Z,8.60
2023-04-16T02:14:41.448Z,8.70
2023-04-16T02:17:09.787Z,8.80
2023-04-16T02:19:37.910Z,8.80
2023-04-16T02:29:37.841Z,8.70
2023-04-16T02:32:07.487Z,8.70
2023-04-16T02:34:35.844Z,8.70
2023-04-16T02:37:03.930Z,8.70
2023-04-16T02:39:32.238Z,8.70
2023-04-16T02:42:02.497Z,8.70
2023-04-16T02:44:30.670Z,8.70
2023-04-16T02:46:58.766Z,8.70
2023-04-16T02:49:28.410Z,8.70
2023-04-16T02:51:56.485Z,8.70
2023-04-16T02:54:24.615Z,8.70
2023-04-16T02:56:52.693Z,8.70
2023-04-16T02:59:20.761Z,8.80
2023-04-16T03:07:21.215Z,8.80
2023-04-16T03:09:49.345Z,8.80
2023-04-16T03:12:17.451Z,8.80
2023-04-16T03:14:45.583Z,8.80
2023-04-16T03:17:13.712Z,8.80
2023-04-16T03:19:41.798Z,8.70
2023-04-16T03:22:09.897Z,8.80
2023-04-16T03:24:39.403Z,8.70
2023-04-16T03:27:07.590Z,8.70
2023-04-16T03:29:37.949Z,8.70
2023-04-16T03:32:06.431Z,8.80
2023-04-16T03:34:34.512Z,8.80
2023-04-16T03:37:02.659Z,8.80
2023-04-16T03:39:30.779Z,8.70
2023-04-16T03:42:00.226Z,8.80
2023-04-16T03:44:28.352Z,8.80
2023-04-16T03:46:56.557Z,8.70
2023-04-16T03:49:25.051Z,8.70
2023-04-16T03:51:53.192Z,8.70
2023-04-16T04:05:44.961Z,8.70
2023-04-16T04:08:13.106Z,8.70
2023-04-16T04:10:41.173Z,8.70
2023-04-16T04:13:09.405Z,8.70
2023-04-16T04:15:37.695Z,8.70
2023-04-16T04:18:06.982Z,8.70
2023-04-16T04:20:35.125Z,8.70
2023-04-16T04:23:04.701Z,8.70
2023-04-16T04:25:32.786Z,8.80
2023-04-16T04:28:00.875Z,8.80
2023-04-16T04:30:28.998Z,8.80
2023-04-16T04:32:57.165Z,8.80
2023-04-16T04:35:25.310Z,8.80
2023-04-16T04:37:53.371Z,8.70
2023-04-16T04:40:23.013Z,8.70
2023-04-16T04:42:51.085Z,8.70
2023-04-16T04:56:53.535Z,8.70
2023-04-16T04:59:21.896Z,8.70
2023-04-16T05:01:50.210Z,8.70
2023-04-16T05:04:18.667Z,8.70
2023-04-16T05:06:46.822Z,8.70
2023-04-16T05:09:15.082Z,8.70
2023-04-16T05:11:43.553Z,8.70
2023-04-16T05:14:13.024Z,8.60
2023-04-16T05:16:41.423Z,8.70
2023-04-16T05:19:09.791Z,8.70
2023-04-16T05:21:38.070Z,8.70
2023-04-16T05:24:06.635Z,8.70
2023-04-16T05:26:34.768Z,8.70
2023-04-16T05:29:03.005Z,8.60
2023-04-16T05:31:32.522Z,8.70
2023-04-16T05:34:00.593Z,8.60
2023-04-16T05:36:28.958Z,8.70
2023-04-16T05:38:57.137Z,8.70
2023-04-16T05:41:25.620Z,8.70
2023-04-16T05:43:53.692Z,8.70
2023-04-16T05:46:21.867Z,8.70
2023-04-16T05:48:51.353Z,8.70
2023-04-16T05:51:20.086Z,8.70
2023-04-16T05:53:48.154Z,8.70
2023-04-16T05:56:16.363Z,8.70
2023-04-16T05:58:44.505Z,8.70
2023-04-16T06:01:12.696Z,8.70
2023-04-16T06:03:40.835Z,8.80
2023-04-16T06:06:10.415Z,8.70
2023-04-16T06:08:38.518Z,8.80
2023-04-16T06:11:06.820Z,8.80
2023-04-16T06:13:34.918Z,8.90
2023-04-16T06:16:03.031Z,8.90
2023-04-16T06:18:31.353Z,8.90
2023-04-16T06:20:59.895Z,8.90
2023-04-16T06:23:29.438Z,9.00
2023-04-16T06:25:57.532Z,9.00
2023-04-16T06:28:25.692Z,9.00
2023-04-16T06:30:53.848Z,9.00
2023-04-16T06:33:22.070Z,9.00
2023-04-16T06:35:50.232Z,9.10
2023-04-16T06:38:18.303Z,9.10
2023-04-16T06:40:47.768Z,9.10
2023-04-16T06:43:17.970Z,9.20
2023-04-16T06:45:46.106Z,9.30
2023-04-16T06:48:14.246Z,9.30
2023-04-16T06:50:42.843Z,9.20
2023-04-16T06:53:11.084Z,9.20
2023-04-16T06:55:39.220Z,9.20
2023-04-16T06:58:08.747Z,9.20
2023-04-16T07:00:36.898Z,9.20
2023-04-16T07:03:05.326Z,9.30
2023-04-16T07:05:33.504Z,9.30
2023-04-16T07:08:01.868Z,9.40
2023-04-16T07:10:30.123Z,9.40
2023-04-16T07:12:58.333Z,9.50
2023-04-16T07:15:27.851Z,9.60
2023-04-16T07:17:55.948Z,9.70
2023-04-16T07:20:24.150Z,9.70
2023-04-16T07:22:52.277Z,9.70
2023-04-16T07:25:20.516Z,9.80
2023-04-16T07:27:48.626Z,9.80
2023-04-16T07:30:17.057Z,9.80
2023-04-16T07:32:46.647Z,9.80
2023-04-16T07:35:14.797Z,9.80
2023-04-16T07:37:42.877Z,9.80
2023-04-16T07:40:11.677Z,9.80
2023-04-16T07:42:39.775Z,9.80
2023-04-16T07:45:08.987Z,9.80
2023-04-16T07:47:37.205Z,9.70
2023-04-16T07:50:08.189Z,9.80
2023-04-16T07:52:37.364Z,9.90
2023-04-16T07:55:05.971Z,10.00
2023-04-16T07:57:34.285Z,10.10
2023-04-16T08:00:04.978Z,10.20
2023-04-16T08:02:33.801Z,10.40
2023-04-16T08:05:02.051Z,10.40
2023-04-16T08:07:33.335Z,10.40
2023-04-16T08:10:02.755Z,10.40
2023-04-16T08:12:31.226Z,10.30
2023-04-16T08:14:59.357Z,10.30
2023-04-16T08:17:28.580Z,10.30
2023-04-16T08:19:56.704Z,10.30
2023-04-16T08:22:24.814Z,10.40
2023-04-16T08:24:54.324Z,10.40
2023-04-16T08:27:22.514Z,10.40
2023-04-16T08:29:50.657Z,10.40
2023-04-16T08:32:18.881Z,10.40
2023-04-16T08:34:47.168Z,10.60
2023-04-16T08:37:15.444Z,10.60
2023-04-16T08:39:43.624Z,10.60
2023-04-16T08:42:30.218Z,10.60
2023-04-16T08:45:08.684Z,10.60
2023-04-16T08:47:37.965Z,10.70
2023-04-16T08:50:07.050Z,10.70
2023-04-16T08:52:38.886Z,10.60
2023-04-16T08:55:13.413Z,10.70
2023-04-16T08:57:48.843Z,10.80
2023-04-16T09:00:18.001Z,10.80
2023-04-16T09:10:36.767Z,11.00
2023-04-16T09:13:06.328Z,11.00
2023-04-16T09:15:36.699Z,11.10
2023-04-16T09:18:04.980Z,11.30
2023-04-16T09:20:33.152Z,11.40
2023-04-16T09:23:01.294Z,11.50
2023-04-16T09:25:33.881Z,11.50
2023-04-16T09:28:02.189Z,11.60
2023-04-16T09:30:31.853Z,11.60
2023-04-16T09:33:16.735Z,11.50
2023-04-16T09:35:48.739Z,11.50
2023-04-16T09:38:17.561Z,11.50
2023-04-16T09:40:47.529Z,11.60
2023-04-16T09:43:17.086Z,11.70
2023-04-16T09:45:53.859Z,11.70
2023-04-16T09:48:31.836Z,11.70
2023-04-16T09:51:00.479Z,11.70
2023-04-16T09:53:29.617Z,11.90
2023-04-16T09:55:59.157Z,11.90
2023-04-16T09:58:27.620Z,12.00
2023-04-16T10:01:02.748Z,12.10
2023-04-16T10:03:32.849Z,12.10
2023-04-16T10:06:02.897Z,12.20
2023-04-16T10:08:31.197Z,12.20
2023-04-16T10:10:59.785Z,12.20
2023-04-16T10:13:31.011Z,12.00
2023-04-16T10:16:00.862Z,12.20
2023-04-16T10:18:29.885Z,12.20
2023-04-16T10:20:59.097Z,12.50
2023-04-16T10:23:28.237Z,12.70
2023-04-16T10:25:57.647Z,12.80
2023-04-16T10:28:27.164Z,12.90
2023-04-16T10:30:58.031Z,13.20
2023-04-16T10:33:29.442Z,13.10
2023-04-16T10:36:10.428Z,13.10
2023-04-16T10:38:41.235Z,13.40
2023-04-16T10:41:09.979Z,13.60
2023-04-16T10:43:42.370Z,13.90
2023-04-16T10:46:24.121Z,13.60
2023-04-16T10:48:55.271Z,13.20
2023-04-16T10:51:31.539Z,13.20
2023-04-16T10:54:05.098Z,13.40
2023-04-16T10:56:34.660Z,13.30
2023-04-16T10:59:05.781Z,13.30
2023-04-16T11:01:34.992Z,13.40
2023-04-16T11:04:28.430Z,13.80
2023-04-16T11:07:04.639Z,13.80
2023-04-16T11:09:56.211Z,13.70
2023-04-16T11:12:27.634Z,13.80
2023-04-16T11:14:59.552Z,13.90
2023-04-16T11:17:30.926Z,14.10
2023-04-16T11:20:00.697Z,13.90
2023-04-16T11:22:28.902Z,14.10
2023-04-16T11:24:57.894Z,14.20
2023-04-16T11:27:26.602Z,14.40
2023-04-16T11:30:02.036Z,14.40
2023-04-16T11:32:33.181Z,14.60
2023-04-16T11:35:04.793Z,14.50
2023-04-16T11:37:34.385Z,14.50
2023-04-16T11:40:03.737Z,14.10
2023-04-16T11:42:31.906Z,14.10
2023-04-16T11:45:01.540Z,14.40
2023-04-16T11:47:31.885Z,14.50
2023-04-16T11:50:16.244Z,14.50
2023-04-16T11:52:44.493Z,14.50
2023-04-16T11:55:12.759Z,14.60
2023-04-16T11:57:40.886Z,14.50
2023-04-16T12:00:11.107Z,14.50
2023-04-16T12:02:40.409Z,14.60
2023-04-16T12:05:30.412Z,14.70
2023-04-16T12:07:59.233Z,15.00
2023-04-16T12:10:27.696Z,15.00
2023-04-16T12:12:56.013Z,14.90
2023-04-16T12:15:24.436Z,14.80
2023-04-16T12:18:07.176Z,14.60
2023-04-16T12:20:42.768Z,14.40
2023-04-16T12:23:11.306Z,14.30
2023-04-16T12:25:40.221Z,13.80
2023-04-16T12:28:08.477Z,13.90
2023-04-16T12:30:51.384Z,13.60
2023-04-16T12:33:21.344Z,13.80
2023-04-16T12:35:51.069Z,14.00
2023-04-16T12:38:19.387Z,13.90
2023-04-16T12:40:47.610Z,13.90
2023-04-16T12:43:16.041Z,13.70
2023-04-16T12:45:44.216Z,14.00
2023-04-16T12:48:12.333Z,13.90
2023-04-16T12:50:40.727Z,14.20
2023-04-16T12:53:10.213Z,14.10
2023-04-16T12:55:38.384Z,13.90
2023-04-16T12:58:06.694Z,13.90
2023-04-16T13:00:35.115Z,14.00
2023-04-16T13:03:03.347Z,14.30
2023-04-16T13:05:31.727Z,14.20
2023-04-16T13:07:59.873Z,14.00
2023-04-16T13:10:29.424Z,14.00
2023-04-16T13:12:57.583Z,14.00
2023-04-16T13:15:25.768Z,14.10
2023-04-16T13:17:53.900Z,14.00
2023-04-16T13:20:24.355Z,14.30
2023-04-16T13:22:52.699Z,14.20
2023-04-16T13:25:20.877Z,14.10
2023-04-16T13:27:50.487Z,14.10
2023-04-16T13:30:18.718Z,13.90
2023-04-16T13:32:46.895Z,13.60
2023-04-16T13:35:15.120Z,13.90
2023-04-16T13:37:43.190Z,13.90
2023-04-16T13:40:11.385Z,14.00
2023-04-16T13:42:39.535Z,14.00
2023-04-16T13:45:10.476Z,14.20
2023-04-16T13:47:41.600Z,14.00
2023-04-16T13:50:10.432Z,14.00
2023-04-16T13:52:38.653Z,13.90
2023-04-16T13:55:09.602Z,13.90
2023-04-16T13:57:37.916Z,13.80
2023-04-16T14:00:11.892Z,13.80
2023-04-16T14:02:42.302Z,13.60
2023-04-16T14:05:10.852Z,13.50
2023-04-16T14:07:39.049Z,13.60
2023-04-16T14:10:08.296Z,13.70
2023-04-16T14:12:37.180Z,13.70
2023-04-16T14:15:06.805Z,13.80
2023-04-16T14:17:37.153Z,14.10
2023-04-16T14:20:06.960Z,14.20
2023-04-16T14:22:35.214Z,14.00
2023-04-16T14:25:03.361Z,13.70
2023-04-16T14:27:31.655Z,13.40
2023-04-16T14:29:59.845Z,13.50
2023-04-16T14:32:28.131Z,13.40
2023-04-16T14:34:57.692Z,13.50
2023-04-16T14:37:26.301Z,13.50
2023-04-16T14:39:54.791Z,13.60
2023-04-16T14:42:22.904Z,13.40
2023-04-16T14:44:52.305Z,13.60
2023-04-16T14:47:20.475Z,13.60
2023-04-16T14:49:48.614Z,13.40
2023-04-16T14:52:18.111Z,13.50
2023-04-16T14:54:47.834Z,13.50
2023-04-16T14:57:17.119Z,13.20
2023-04-16T14:59:45.296Z,13.10
2023-04-16T15:02:13.683Z,13.20
2023-04-16T15:04:41.975Z,13.20
2023-04-16T15:07:10.171Z,13.20
2023-04-16T15:09:39.665Z,13.50
2023-04-16T15:12:07.910Z,13.60
2023-04-16T15:14:36.185Z,13.20
2023-04-16T15:17:04.643Z,13.00
2023-04-16T15:19:32.823Z,13.20
2023-04-16T15:22:00.967Z,13.40
2023-04-16T15:24:29.059Z,13.30
2023-04-16T15:26:58.572Z,13.30
2023-04-16T15:29:26.643Z,13.60
2023-04-16T15:31:54.717Z,13.80
2023-04-16T15:34:22.838Z,13.50
2023-04-16T15:36:50.954Z,13.40
2023-04-16T15:39:19.539Z,13.40
2023-04-16T16:01:04.190Z,12.60
2023-04-16T16:03:33.882Z,12.70
2023-04-16T16:06:04.028Z,12.60
2023-04-16T16:08:34.226Z,12.50
2023-04-16T16:11:02.389Z,12.30
2023-04-16T16:13:30.597Z,12.30
2023-04-16T16:15:58.761Z,12.20
2023-04-16T16:18:28.320Z,12.30
2023-04-16T16:20:59.691Z,12.30
2023-04-16T16:23:27.934Z,12.30
2023-04-16T16:25:56.898Z,12.30
2023-04-16T16:28:25.333Z,12.10
2023-04-16T16:30:55.782Z,12.20
2023-04-16T16:33:24.038Z,12.10
2023-04-16T16:35:53.531Z,12.30
2023-04-16T16:38:21.641Z,12.40
2023-04-16T16:40:49.795Z,12.60
2023-04-16T16:43:17.902Z,12.60
2023-04-16T16:45:46.560Z,12.70
2023-04-16T16:48:14.811Z,12.70
2023-04-16T16:50:43.031Z,12.70
2023-04-16T16:53:12.564Z,12.80
2023-04-16T16:55:41.058Z,12.80
2023-04-16T16:58:09.758Z,12.80
2023-04-16T17:00:38.069Z,12.80
2023-04-16T17:03:06.398Z,13.00
2023-04-16T17:05:34.699Z,13.10
2023-04-16T17:08:02.872Z,12.90
2023-04-16T17:10:32.542Z,12.80
2023-04-16T17:13:00.662Z,12.70
2023-04-16T17:15:28.852Z,12.70
2023-04-16T17:17:57.239Z,12.50
2023-04-16T17:20:26.188Z,12.40
2023-04-16T17:22:54.404Z,12.20
2023-04-16T17:25:22.685Z,12.10
2023-04-16T17:27:52.294Z,12.20
2023-04-16T17:30:20.686Z,12.20
2023-04-16T17:32:48.928Z,12.10
2023-04-16T17:35:17.117Z,12.20
2023-04-16T17:37:45.461Z,12.20
2023-04-16T17:40:15.638Z,12.20
2023-04-16T17:42:43.772Z,12.10
2023-04-16T17:45:14.100Z,12.10
2023-04-16T17:47:42.396Z,12.00
2023-04-16T17:50:11.516Z,11.90
2023-04-16T17:52:39.685Z,11.90
2023-04-16T17:55:08.645Z,11.80
2023-04-16T17:57:37.348Z,11.60
2023-04-16T18:00:10.551Z,11.60
2023-04-16T18:02:41.052Z,11.70
2023-04-16T18:05:10.230Z,11.60
2023-04-16T18:07:39.175Z,11.50
2023-04-16T18:10:08.830Z,11.40
2023-04-16T18:12:37.025Z,11.40
2023-04-16T18:15:05.781Z,11.30
2023-04-16T18:21:26.121Z,11.00
2023-04-16T18:23:54.233Z,10.90
2023-04-16T18:26:22.936Z,10.70
2023-04-16T18:28:51.498Z,10.60
2023-04-16T18:31:21.333Z,10.60
2023-04-16T18:33:57.509Z,10.60
2023-04-16T18:36:28.135Z,10.60
2023-04-16T18:39:02.052Z,10.70
2023-04-16T18:41:30.972Z,10.60
2023-04-16T19:32:50.152Z,10.10
2023-04-16T19:35:18.420Z,10.20
2023-04-16T19:37:46.620Z,10.10
2023-04-16T19:40:15.092Z,10.00
2023-04-16T19:42:45.422Z,10.00
2023-04-16T19:45:13.568Z,10.00
2023-04-16T19:47:41.721Z,10.00
2023-04-16T19:50:12.323Z,9.90
2023-04-16T19:52:40.624Z,9.90
2023-04-16T19:55:09.877Z,9.90
2023-04-16T19:57:38.065Z,9.90
2023-04-16T20:00:09.237Z,10.00
2023-04-16T20:02:37.482Z,10.00
2023-04-16T20:05:06.100Z,10.00
2023-04-16T20:07:35.705Z,10.00
2023-04-16T20:10:04.119Z,9.80
2023-04-16T20:12:32.384Z,9.80
2023-04-16T20:15:00.629Z,9.90
2023-04-16T20:17:28.830Z,9.90
2023-04-16T20:20:00.907Z,9.70
2023-04-16T20:22:29.118Z,9.80
2023-04-16T20:24:58.629Z,9.80
2023-04-16T20:27:26.717Z,9.70
2023-04-16T20:29:54.977Z,9.70
2023-04-16T20:32:23.760Z,9.60
2023-04-16T20:34:52.911Z,9.60
2023-04-16T20:37:21.040Z,9.60
2023-04-16T20:39:50.150Z,9.50
2023-04-16T20:42:22.649Z,9.50
2023-04-16T20:44:55.855Z,9.50
2023-04-16T20:47:24.118Z,9.50
2023-04-16T20:49:54.784Z,9.40
2023-04-16T20:52:23.096Z,9.40
2023-04-16T20:54:52.403Z,9.50
2023-04-16T20:57:23.288Z,9.50
2023-04-16T20:59:51.773Z,9.50
2023-04-16T21:02:20.760Z,9.50
2023-04-16T21:04:49.294Z,9.50
2023-04-16T21:07:17.438Z,9.40
2023-04-16T21:09:45.651Z,9.50
2023-04-16T21:12:13.754Z,9.40
2023-04-16T21:14:43.316Z,9.40
2023-04-16T21:17:11.538Z,9.40
2023-04-16T21:19:40.215Z,9.40
2023-04-16T21:22:08.364Z,9.40
2023-04-16T21:24:36.546Z,9.40
2023-04-16T21:27:04.912Z,9.50
2023-04-16T21:29:33.590Z,9.50
2023-04-16T21:32:03.169Z,9.40
2023-04-16T21:34:31.321Z,9.40
2023-04-16T21:36:59.704Z,9.50
2023-04-16T21:39:30.893Z,9.40
2023-04-16T21:41:59.120Z,9.40
2023-04-16T21:44:27.310Z,9.40
2023-04-16T21:46:55.526Z,9.40
2023-04-16T21:49:25.060Z,9.40
2023-04-16T21:51:59.026Z,9.40
2023-04-16T21:54:27.188Z,9.50
2023-04-16T21:56:55.274Z,9.40
2023-04-16T21:59:23.361Z,9.40
2023-04-16T22:01:51.687Z,9.40
2023-04-16T22:04:26.111Z,9.40
2023-04-16T22:06:57.164Z,9.40
2023-04-16T22:09:25.834Z,9.40
2023-04-16T22:11:53.949Z,9.40
2023-04-16T22:14:22.109Z,9.40
2023-04-16T22:16:51.758Z,9.40
2023-04-16T22:19:21.572Z,9.40
2023-04-16T22:21:50.404Z,9.40
2023-04-16T22:24:20.039Z,9.40
2023-04-16T22:26:48.188Z,9.40
2023-04-16T22:29:16.305Z,9.40
2023-04-16T22:31:44.580Z,9.40
2023-04-16T22:34:12.699Z,9.40
2023-04-16T22:36:41.269Z,9.50
2023-04-16T22:39:09.680Z,9.50
2023-04-16T22:41:39.487Z,9.40
2023-04-16T22:44:07.691Z,9.50
2023-04-16T22:46:35.925Z,9.50
2023-04-16T22:49:04.144Z,9.50
2023-04-16T22:51:32.239Z,9.50
2023-04-16T22:54:00.561Z,9.50
2023-04-16T22:56:30.380Z,9.50
2023-04-16T22:58:59.903Z,9.50
2023-04-16T23:01:28.054Z,9.50
2023-04-16T23:03:56.221Z,9.50
2023-04-16T23:06:24.507Z,9.50
2023-04-16T23:08:52.647Z,9.50
2023-04-16T23:11:21.085Z,9.50
2023-04-16T23:13:49.270Z,9.40
2023-04-16T23:16:18.825Z,9.30
2023-04-16T23:18:47.022Z,9.30
2023-04-16T23:21:17.038Z,9.30
2023-04-16T23:23:45.147Z,9.30
2023-04-16T23:26:13.369Z,9.30
2023-04-16T23:28:41.407Z,9.30
2023-04-16T23:31:10.482Z,9.40
2023-04-16T23:33:40.115Z,9.30
2023-04-16T23:36:09.318Z,9.30
2023-04-16T23:38:37.413Z,9.30
2023-04-16T23:41:05.584Z,9.40
2023-04-16T23:43:34.791Z,9.40
2023-04-16T23:46:03.232Z,9.30
2023-04-16T23:48:31.513Z,9.30
2023-04-16T23:51:01.004Z,9.20
2023-04-16T23:53:29.100Z,9.20
2023-04-16T23:55:57.278Z,9.20
2023-04-16T23:58:26.803Z,9.10
